Impacts METAR Board
IDs:

KCVG - Cincinnati Intl, KY, US

Updated at: 2200 UTC 18 Dec 2018
Potential Impact None Slight Moderate High
Time 18/10Z 18/11Z 18/12Z 18/13Z 18/14Z 18/15Z 18/16Z 18/17Z 18/18Z 18/19Z 18/20Z 18/21Z 18/22Z
Temp29 29 30 27 30 33 36 39 42 44 43 43 43
Dewpt26 25 26 25 27 29 29 29 30 29 28 27 27
Altim30.20 30.21 30.22 30.23 30.24 30.25 30.25 30.23 30.21 30.18 30.16 30.15 30.15
VIS9 8 8 5 6 8 10 10 10 10 10 10 10
CIG-- -- -- -- -- -- -- -- 300 300 300 250 250
CoverCLRCLRCLRFEWFEWFEWFEWSCTBKNBKNBKNBKNBKN
FltCatVFRVFRVFRMVFRVFRVFRVFRVFRVFRVFRVFRVFRVFR
WX------BCFG BRBR----------------
WDir36010360360308016007010009070
WSpd4 5 4 4 3 5 4 0 4 3 0 4 4
WGst-- -- -- -- -- -- -- -- -- -- -- -- --
Raw hourly METARs
KCVG 180952Z 36004KT 9SM CLR M02/M03 A3020 RMK AO2 SLP232 T10171033
KCVG 181052Z 01005KT 8SM CLR M02/M04 A3021 RMK AO2 SLP235 T10171039
KCVG 181152Z 36004KT 8SM CLR M01/M03 A3022 RMK AO2 SLP239 T10111033 10006 21022 53009
KCVG 181252Z 36004KT 5SM R18C/1600VP6000FT BCFG BR FEW250 M03/M04 A3023 RMK AO2 SLP244 BCFG N T10281039
KCVG 181352Z 03003KT 6SM BR FEW250 M01/M03 A3024 RMK AO2 SLP248 T10111028
KCVG 181452Z 08005KT 8SM FEW250 01/M02 A3025 RMK AO2 SLP249 T00061017 51009
KCVG 181552Z 16004KT 10SM FEW300 02/M02 A3025 RMK AO2 SLP249 T00221017
KCVG 181652Z 00000KT 10SM SCT300 04/M02 A3023 RMK AO2 SLP241 T00391017
KCVG 181752Z 07004KT 10SM BKN300 06/M01 A3021 RMK AO2 SLP233 T00561011 10056 21033 58014
KCVG 181852Z 10003KT 10SM BKN300 07/M02 A3018 RMK AO2 SLP224 T00671017
KCVG 181952Z 00000KT 10SM BKN300 06/M02 A3016 RMK AO2 SLP217 T00611022
KCVG 182052Z 09004KT 10SM BKN250 06/M03 A3015 RMK AO2 SLP215 T00611028 56018
KCVG 182152Z 07004KT 10SM BKN250 06/M03 A3015 RMK AO2 SLP213 T00611028



Page loaded:  22:54 UTC  |   02:54 PM Pacific  |   03:54 PM Mountain  |   04:54 PM Central  |   05:54 PM Eastern

 

ADVISORIES

FORECASTS

FORECASTS

OBSERVATIONS

USER TOOLS

ABOUT US